sensor_id;sensor_type;location;lat;lon;timestamp;P1;durP1;ratioP1;P2;durP2;ratioP2
5460;SDS011;2753;49.196;8.286;2024-02-26T00:01:38;5.90;;;3.43;;
5460;SDS011;2753;49.196;8.286;2024-02-26T00:04:04;4.80;;;3.37;;
5460;SDS011;2753;49.196;8.286;2024-02-26T00:06:30;7.00;;;3.53;;
5460;SDS011;2753;49.196;8.286;2024-02-26T00:08:56;6.13;;;3.83;;
5460;SDS011;2753;49.196;8.286;2024-02-26T00:11:22;5.27;;;3.10;;
5460;SDS011;2753;49.196;8.286;2024-02-26T00:13:48;3.13;;;2.40;;
5460;SDS011;2753;49.196;8.286;2024-02-26T00:16:14;4.07;;;3.10;;
5460;SDS011;2753;49.196;8.286;2024-02-26T00:18:40;6.07;;;3.40;;
5460;SDS011;2753;49.196;8.286;2024-02-26T00:21:06;3.80;;;2.43;;
5460;SDS011;2753;49.196;8.286;2024-02-26T00:23:31;4.10;;;2.60;;
5460;SDS011;2753;49.196;8.286;2024-02-26T00:25:57;2.67;;;2.40;;
5460;SDS011;2753;49.196;8.286;2024-02-26T00:28:23;11.60;;;8.60;;
5460;SDS011;2753;49.196;8.286;2024-02-26T00:30:54;2.73;;;2.53;;
5460;SDS011;2753;49.196;8.286;2024-02-26T00:33:21;2.20;;;1.83;;
5460;SDS011;2753;49.196;8.286;2024-02-26T00:35:50;1.80;;;1.67;;
5460;SDS011;2753;49.196;8.286;2024-02-26T00:38:16;2.30;;;1.87;;
5460;SDS011;2753;49.196;8.286;2024-02-26T00:40:42;2.43;;;2.23;;
5460;SDS011;2753;49.196;8.286;2024-02-26T00:43:08;2.23;;;2.03;;
5460;SDS011;2753;49.196;8.286;2024-02-26T00:45:33;3.03;;;2.10;;
5460;SDS011;2753;49.196;8.286;2024-02-26T00:47:59;1.83;;;1.73;;
5460;SDS011;2753;49.196;8.286;2024-02-26T00:50:32;8.73;;;2.37;;
5460;SDS011;2753;49.196;8.286;2024-02-26T00:52:59;4.17;;;2.20;;
5460;SDS011;2753;49.196;8.286;2024-02-26T00:55:25;4.20;;;2.20;;
5460;SDS011;2753;49.196;8.286;2024-02-26T00:57:51;5.47;;;2.17;;
5460;SDS011;2753;49.196;8.286;2024-02-26T01:00:16;3.13;;;2.80;;
5460;SDS011;2753;49.196;8.286;2024-02-26T01:02:42;10.67;;;3.33;;
5460;SDS011;2753;49.196;8.286;2024-02-26T01:05:11;5.10;;;2.47;;
5460;SDS011;2753;49.196;8.286;2024-02-26T01:07:37;2.60;;;2.40;;
5460;SDS011;2753;49.196;8.286;2024-02-26T01:10:04;2.67;;;2.43;;
5460;SDS011;2753;49.196;8.286;2024-02-26T01:12:31;2.43;;;2.23;;
5460;SDS011;2753;49.196;8.286;2024-02-26T01:14:58;3.20;;;2.90;;
5460;SDS011;2753;49.196;8.286;2024-02-26T01:17:23;3.67;;;2.70;;
5460;SDS011;2753;49.196;8.286;2024-02-26T01:19:49;5.97;;;2.80;;
5460;SDS011;2753;49.196;8.286;2024-02-26T01:22:15;2.53;;;2.33;;
5460;SDS011;2753;49.196;8.286;2024-02-26T01:24:41;3.67;;;2.60;;
5460;SDS011;2753;49.196;8.286;2024-02-26T01:27:06;4.30;;;2.90;;
5460;SDS011;2753;49.196;8.286;2024-02-26T01:29:33;5.00;;;2.70;;
5460;SDS011;2753;49.196;8.286;2024-02-26T01:31:59;6.00;;;2.60;;
5460;SDS011;2753;49.196;8.286;2024-02-26T01:34:25;12.40;;;2.30;;
5460;SDS011;2753;49.196;8.286;2024-02-26T01:36:51;3.93;;;2.40;;
5460;SDS011;2753;49.196;8.286;2024-02-26T01:39:16;2.70;;;1.93;;
5460;SDS011;2753;49.196;8.286;2024-02-26T01:41:42;3.17;;;2.63;;
5460;SDS011;2753;49.196;8.286;2024-02-26T01:44:08;5.13;;;2.70;;
5460;SDS011;2753;49.196;8.286;2024-02-26T01:46:38;4.60;;;2.40;;
5460;SDS011;2753;49.196;8.286;2024-02-26T01:49:04;2.17;;;2.07;;
5460;SDS011;2753;49.196;8.286;2024-02-26T01:51:31;2.83;;;2.47;;
5460;SDS011;2753;49.196;8.286;2024-02-26T01:53:58;3.90;;;2.20;;
5460;SDS011;2753;49.196;8.286;2024-02-26T01:56:26;3.50;;;2.50;;
5460;SDS011;2753;49.196;8.286;2024-02-26T01:58:55;3.87;;;2.20;;
5460;SDS011;2753;49.196;8.286;2024-02-26T02:01:22;2.93;;;1.70;;
5460;SDS011;2753;49.196;8.286;2024-02-26T02:03:50;2.33;;;2.10;;
5460;SDS011;2753;49.196;8.286;2024-02-26T02:06:16;2.53;;;2.33;;
5460;SDS011;2753;49.196;8.286;2024-02-26T02:08:43;3.17;;;1.97;;
5460;SDS011;2753;49.196;8.286;2024-02-26T02:11:08;1.93;;;1.63;;
5460;SDS011;2753;49.196;8.286;2024-02-26T02:13:36;3.47;;;1.70;;
5460;SDS011;2753;49.196;8.286;2024-02-26T02:16:03;1.90;;;1.53;;
5460;SDS011;2753;49.196;8.286;2024-02-26T02:18:29;3.33;;;1.37;;
5460;SDS011;2753;49.196;8.286;2024-02-26T02:20:55;1.37;;;1.27;;
5460;SDS011;2753;49.196;8.286;2024-02-26T02:23:24;1.50;;;1.10;;
5460;SDS011;2753;49.196;8.286;2024-02-26T02:25:50;0.90;;;0.90;;
5460;SDS011;2753;49.196;8.286;2024-02-26T02:28:16;1.40;;;1.30;;
5460;SDS011;2753;49.196;8.286;2024-02-26T02:30:42;2.60;;;1.40;;
5460;SDS011;2753;49.196;8.286;2024-02-26T02:33:08;2.10;;;1.20;;
5460;SDS011;2753;49.196;8.286;2024-02-26T02:35:34;1.17;;;1.17;;
5460;SDS011;2753;49.196;8.286;2024-02-26T02:38:00;1.23;;;1.13;;
5460;SDS011;2753;49.196;8.286;2024-02-26T02:40:26;1.07;;;0.97;;
5460;SDS011;2753;49.196;8.286;2024-02-26T02:42:52;1.67;;;1.00;;
5460;SDS011;2753;49.196;8.286;2024-02-26T02:45:18;1.57;;;1.23;;
5460;SDS011;2753;49.196;8.286;2024-02-26T02:47:43;1.60;;;1.50;;
5460;SDS011;2753;49.196;8.286;2024-02-26T02:50:09;3.23;;;2.17;;
5460;SDS011;2753;49.196;8.286;2024-02-26T02:52:35;3.67;;;2.77;;
5460;SDS011;2753;49.196;8.286;2024-02-26T02:55:00;2.00;;;1.80;;
5460;SDS011;2753;49.196;8.286;2024-02-26T02:57:26;1.33;;;1.23;;
5460;SDS011;2753;49.196;8.286;2024-02-26T02:59:52;3.53;;;1.63;;
5460;SDS011;2753;49.196;8.286;2024-02-26T03:02:18;1.77;;;1.17;;
5460;SDS011;2753;49.196;8.286;2024-02-26T03:04:43;0.93;;;0.90;;
5460;SDS011;2753;49.196;8.286;2024-02-26T03:07:09;1.57;;;1.17;;
5460;SDS011;2753;49.196;8.286;2024-02-26T03:09:34;1.50;;;1.40;;
5460;SDS011;2753;49.196;8.286;2024-02-26T03:12:00;1.17;;;1.00;;
5460;SDS011;2753;49.196;8.286;2024-02-26T03:14:26;2.97;;;1.57;;
5460;SDS011;2753;49.196;8.286;2024-02-26T03:16:55;2.80;;;1.60;;
5460;SDS011;2753;49.196;8.286;2024-02-26T03:19:21;1.90;;;1.80;;
5460;SDS011;2753;49.196;8.286;2024-02-26T03:21:47;2.40;;;1.37;;
5460;SDS011;2753;49.196;8.286;2024-02-26T03:24:12;3.83;;;1.87;;
5460;SDS011;2753;49.196;8.286;2024-02-26T03:26:38;1.83;;;1.57;;
5460;SDS011;2753;49.196;8.286;2024-02-26T03:29:04;1.77;;;1.50;;
5460;SDS011;2753;49.196;8.286;2024-02-26T03:31:30;1.87;;;1.77;;
5460;SDS011;2753;49.196;8.286;2024-02-26T03:33:56;2.03;;;1.30;;
5460;SDS011;2753;49.196;8.286;2024-02-26T03:36:22;1.30;;;1.20;;
5460;SDS011;2753;49.196;8.286;2024-02-26T03:38:48;3.67;;;1.37;;
5460;SDS011;2753;49.196;8.286;2024-02-26T03:41:14;1.10;;;1.00;;
5460;SDS011;2753;49.196;8.286;2024-02-26T03:43:39;1.60;;;1.50;;
5460;SDS011;2753;49.196;8.286;2024-02-26T03:46:08;1.10;;;0.90;;
5460;SDS011;2753;49.196;8.286;2024-02-26T03:48:36;2.20;;;0.70;;
5460;SDS011;2753;49.196;8.286;2024-02-26T03:51:05;2.10;;;0.87;;
5460;SDS011;2753;49.196;8.286;2024-02-26T03:53:30;0.80;;;0.80;;
5460;SDS011;2753;49.196;8.286;2024-02-26T03:55:56;2.50;;;0.63;;
5460;SDS011;2753;49.196;8.286;2024-02-26T03:58:22;1.80;;;0.60;;
5460;SDS011;2753;49.196;8.286;2024-02-26T04:00:47;1.00;;;0.80;;
5460;SDS011;2753;49.196;8.286;2024-02-26T04:03:13;0.70;;;0.60;;
5460;SDS011;2753;49.196;8.286;2024-02-26T04:05:39;0.70;;;0.70;;
5460;SDS011;2753;49.196;8.286;2024-02-26T04:08:05;0.60;;;0.60;;
5460;SDS011;2753;49.196;8.286;2024-02-26T04:10:32;7.73;;;0.80;;
5460;SDS011;2753;49.196;8.286;2024-02-26T04:13:00;1.47;;;1.37;;
5460;SDS011;2753;49.196;8.286;2024-02-26T04:15:26;2.60;;;2.07;;
5460;SDS011;2753;49.196;8.286;2024-02-26T04:17:51;2.13;;;1.20;;
5460;SDS011;2753;49.196;8.286;2024-02-26T04:20:17;1.77;;;1.27;;
5460;SDS011;2753;49.196;8.286;2024-02-26T04:22:43;0.80;;;0.80;;
5460;SDS011;2753;49.196;8.286;2024-02-26T04:25:09;1.37;;;1.00;;
5460;SDS011;2753;49.196;8.286;2024-02-26T04:27:34;1.73;;;0.90;;
5460;SDS011;2753;49.196;8.286;2024-02-26T04:30:00;2.20;;;0.80;;
5460;SDS011;2753;49.196;8.286;2024-02-26T04:32:26;1.07;;;0.63;;
5460;SDS011;2753;49.196;8.286;2024-02-26T04:34:56;3.40;;;0.90;;
5460;SDS011;2753;49.196;8.286;2024-02-26T04:37:21;0.73;;;0.73;;
5460;SDS011;2753;49.196;8.286;2024-02-26T04:39:47;0.70;;;0.57;;
5460;SDS011;2753;49.196;8.286;2024-02-26T04:42:13;0.80;;;0.70;;
5460;SDS011;2753;49.196;8.286;2024-02-26T04:44:39;0.90;;;0.50;;
5460;SDS011;2753;49.196;8.286;2024-02-26T04:47:04;0.67;;;0.63;;
5460;SDS011;2753;49.196;8.286;2024-02-26T04:49:33;0.80;;;0.70;;
5460;SDS011;2753;49.196;8.286;2024-02-26T04:51:59;0.60;;;0.60;;
5460;SDS011;2753;49.196;8.286;2024-02-26T04:54:24;1.57;;;0.80;;
5460;SDS011;2753;49.196;8.286;2024-02-26T04:56:50;1.63;;;0.70;;
5460;SDS011;2753;49.196;8.286;2024-02-26T04:59:16;0.80;;;0.80;;
5460;SDS011;2753;49.196;8.286;2024-02-26T05:01:42;0.90;;;0.60;;
5460;SDS011;2753;49.196;8.286;2024-02-26T05:04:07;0.60;;;0.60;;
5460;SDS011;2753;49.196;8.286;2024-02-26T05:06:33;1.93;;;1.10;;
5460;SDS011;2753;49.196;8.286;2024-02-26T05:08:59;1.10;;;1.10;;
5460;SDS011;2753;49.196;8.286;2024-02-26T05:11:24;1.10;;;1.03;;
5460;SDS011;2753;49.196;8.286;2024-02-26T05:13:50;0.77;;;0.77;;
5460;SDS011;2753;49.196;8.286;2024-02-26T05:16:16;2.00;;;0.90;;
5460;SDS011;2753;49.196;8.286;2024-02-26T05:18:42;1.33;;;0.60;;
5460;SDS011;2753;49.196;8.286;2024-02-26T05:21:07;1.07;;;1.03;;
5460;SDS011;2753;49.196;8.286;2024-02-26T05:23:33;3.53;;;3.30;;
5460;SDS011;2753;49.196;8.286;2024-02-26T05:25:58;1.80;;;1.70;;
5460;SDS011;2753;49.196;8.286;2024-02-26T05:28:24;4.93;;;1.50;;
5460;SDS011;2753;49.196;8.286;2024-02-26T05:30:50;1.47;;;1.17;;
5460;SDS011;2753;49.196;8.286;2024-02-26T05:33:16;1.00;;;0.90;;
5460;SDS011;2753;49.196;8.286;2024-02-26T05:35:41;1.00;;;1.00;;
5460;SDS011;2753;49.196;8.286;2024-02-26T05:38:07;1.07;;;0.97;;
5460;SDS011;2753;49.196;8.286;2024-02-26T05:40:33;1.00;;;1.00;;
5460;SDS011;2753;49.196;8.286;2024-02-26T05:42:58;1.30;;;1.20;;
5460;SDS011;2753;49.196;8.286;2024-02-26T05:45:24;1.37;;;0.90;;
5460;SDS011;2753;49.196;8.286;2024-02-26T05:47:50;1.00;;;0.90;;
5460;SDS011;2753;49.196;8.286;2024-02-26T05:50:15;1.10;;;0.90;;
5460;SDS011;2753;49.196;8.286;2024-02-26T05:52:41;0.97;;;0.97;;
5460;SDS011;2753;49.196;8.286;2024-02-26T05:55:07;0.60;;;0.60;;
5460;SDS011;2753;49.196;8.286;2024-02-26T05:57:34;2.60;;;0.80;;
5460;SDS011;2753;49.196;8.286;2024-02-26T06:00:00;2.53;;;0.80;;
5460;SDS011;2753;49.196;8.286;2024-02-26T06:02:31;1.33;;;0.97;;
5460;SDS011;2753;49.196;8.286;2024-02-26T06:04:57;1.90;;;1.00;;
5460;SDS011;2753;49.196;8.286;2024-02-26T06:07:23;0.67;;;0.67;;
5460;SDS011;2753;49.196;8.286;2024-02-26T06:09:49;0.73;;;0.73;;
5460;SDS011;2753;49.196;8.286;2024-02-26T06:12:15;2.00;;;0.80;;
5460;SDS011;2753;49.196;8.286;2024-02-26T06:14:41;1.73;;;1.40;;
5460;SDS011;2753;49.196;8.286;2024-02-26T06:17:07;2.20;;;1.23;;
5460;SDS011;2753;49.196;8.286;2024-02-26T06:19:33;1.40;;;1.30;;
5460;SDS011;2753;49.196;8.286;2024-02-26T06:21:59;3.43;;;2.00;;
5460;SDS011;2753;49.196;8.286;2024-02-26T06:24:25;2.53;;;1.90;;
5460;SDS011;2753;49.196;8.286;2024-02-26T06:26:50;6.13;;;3.80;;
5460;SDS011;2753;49.196;8.286;2024-02-26T06:29:16;4.63;;;2.90;;
5460;SDS011;2753;49.196;8.286;2024-02-26T06:31:41;12.80;;;3.80;;
5460;SDS011;2753;49.196;8.286;2024-02-26T06:34:08;10.10;;;4.97;;
5460;SDS011;2753;49.196;8.286;2024-02-26T06:36:34;6.73;;;3.20;;
5460;SDS011;2753;49.196;8.286;2024-02-26T06:39:00;4.63;;;3.10;;
5460;SDS011;2753;49.196;8.286;2024-02-26T06:41:25;6.43;;;4.37;;
5460;SDS011;2753;49.196;8.286;2024-02-26T06:43:55;4.60;;;3.57;;
5460;SDS011;2753;49.196;8.286;2024-02-26T06:46:21;2.20;;;2.00;;
5460;SDS011;2753;49.196;8.286;2024-02-26T06:48:47;1.97;;;1.87;;
5460;SDS011;2753;49.196;8.286;2024-02-26T06:51:14;1.60;;;1.50;;
5460;SDS011;2753;49.196;8.286;2024-02-26T06:53:39;3.23;;;1.40;;
5460;SDS011;2753;49.196;8.286;2024-02-26T06:56:05;2.10;;;1.60;;
5460;SDS011;2753;49.196;8.286;2024-02-26T06:58:34;1.70;;;1.60;;
5460;SDS011;2753;49.196;8.286;2024-02-26T07:01:00;5.93;;;3.83;;
5460;SDS011;2753;49.196;8.286;2024-02-26T07:03:25;12.13;;;6.50;;
5460;SDS011;2753;49.196;8.286;2024-02-26T07:05:51;5.30;;;4.40;;
5460;SDS011;2753;49.196;8.286;2024-02-26T07:08:17;3.23;;;2.80;;
5460;SDS011;2753;49.196;8.286;2024-02-26T07:10:43;3.13;;;2.17;;
5460;SDS011;2753;49.196;8.286;2024-02-26T07:13:09;2.30;;;2.10;;
5460;SDS011;2753;49.196;8.286;2024-02-26T07:15:35;2.07;;;1.97;;
5460;SDS011;2753;49.196;8.286;2024-02-26T07:18:00;2.80;;;1.73;;
5460;SDS011;2753;49.196;8.286;2024-02-26T07:20:29;2.47;;;2.30;;
5460;SDS011;2753;49.196;8.286;2024-02-26T07:22:55;2.60;;;2.40;;
5460;SDS011;2753;49.196;8.286;2024-02-26T07:25:21;2.50;;;2.23;;
5460;SDS011;2753;49.196;8.286;2024-02-26T07:27:47;2.23;;;2.03;;
5460;SDS011;2753;49.196;8.286;2024-02-26T07:30:13;2.00;;;1.80;;
5460;SDS011;2753;49.196;8.286;2024-02-26T07:32:39;1.53;;;1.43;;
5460;SDS011;2753;49.196;8.286;2024-02-26T07:35:05;1.97;;;1.87;;
5460;SDS011;2753;49.196;8.286;2024-02-26T07:37:31;1.83;;;1.70;;
5460;SDS011;2753;49.196;8.286;2024-02-26T07:39:57;2.00;;;1.80;;
5460;SDS011;2753;49.196;8.286;2024-02-26T07:42:22;3.43;;;3.13;;
5460;SDS011;2753;49.196;8.286;2024-02-26T07:44:48;2.53;;;2.30;;
5460;SDS011;2753;49.196;8.286;2024-02-26T07:47:14;3.47;;;2.73;;
5460;SDS011;2753;49.196;8.286;2024-02-26T07:49:39;5.13;;;3.67;;
5460;SDS011;2753;49.196;8.286;2024-02-26T07:52:06;3.60;;;3.40;;
5460;SDS011;2753;49.196;8.286;2024-02-26T07:54:31;1.77;;;1.67;;
5460;SDS011;2753;49.196;8.286;2024-02-26T07:56:58;3.07;;;1.67;;
5460;SDS011;2753;49.196;8.286;2024-02-26T07:59:24;4.80;;;3.87;;
5460;SDS011;2753;49.196;8.286;2024-02-26T08:01:52;1.90;;;1.80;;
5460;SDS011;2753;49.196;8.286;2024-02-26T08:04:30;2.90;;;2.00;;
5460;SDS011;2753;49.196;8.286;2024-02-26T08:07:09;3.80;;;2.10;;
5460;SDS011;2753;49.196;8.286;2024-02-26T08:09:43;3.93;;;2.47;;
5460;SDS011;2753;49.196;8.286;2024-02-26T08:12:15;2.40;;;2.20;;
5460;SDS011;2753;49.196;8.286;2024-02-26T08:14:48;2.43;;;2.20;;
5460;SDS011;2753;49.196;8.286;2024-02-26T08:17:31;4.13;;;2.30;;
5460;SDS011;2753;49.196;8.286;2024-02-26T08:20:09;5.60;;;3.30;;
5460;SDS011;2753;49.196;8.286;2024-02-26T08:22:36;6.53;;;3.20;;
5460;SDS011;2753;49.196;8.286;2024-02-26T08:25:05;17.83;;;8.50;;
5460;SDS011;2753;49.196;8.286;2024-02-26T08:27:36;15.07;;;6.00;;
5460;SDS011;2753;49.196;8.286;2024-02-26T08:30:03;5.90;;;3.17;;
5460;SDS011;2753;49.196;8.286;2024-02-26T08:32:33;10.87;;;3.97;;
5460;SDS011;2753;49.196;8.286;2024-02-26T08:35:16;14.10;;;6.43;;
5460;SDS011;2753;49.196;8.286;2024-02-26T08:37:46;11.10;;;5.97;;
5460;SDS011;2753;49.196;8.286;2024-02-26T08:40:20;6.80;;;4.30;;
5460;SDS011;2753;49.196;8.286;2024-02-26T08:42:50;6.93;;;2.53;;
5460;SDS011;2753;49.196;8.286;2024-02-26T08:45:22;4.63;;;2.10;;
5460;SDS011;2753;49.196;8.286;2024-02-26T08:48:13;3.07;;;2.77;;
5460;SDS011;2753;49.196;8.286;2024-02-26T08:50:44;2.63;;;2.43;;
5460;SDS011;2753;49.196;8.286;2024-02-26T08:53:30;2.43;;;2.33;;
5460;SDS011;2753;49.196;8.286;2024-02-26T08:56:03;3.23;;;2.47;;
5460;SDS011;2753;49.196;8.286;2024-02-26T08:59:25;4.20;;;2.40;;
5460;SDS011;2753;49.196;8.286;2024-02-26T09:02:11;10.13;;;2.53;;
5460;SDS011;2753;49.196;8.286;2024-02-26T09:04:46;3.87;;;3.47;;
5460;SDS011;2753;49.196;8.286;2024-02-26T09:07:16;4.23;;;3.17;;
5460;SDS011;2753;49.196;8.286;2024-02-26T09:09:46;4.90;;;2.93;;
5460;SDS011;2753;49.196;8.286;2024-02-26T09:12:21;7.37;;;3.90;;
5460;SDS011;2753;49.196;8.286;2024-02-26T09:14:47;2.27;;;2.07;;
5460;SDS011;2753;49.196;8.286;2024-02-26T09:17:13;2.90;;;2.60;;
5460;SDS011;2753;49.196;8.286;2024-02-26T09:19:39;2.93;;;2.63;;
5460;SDS011;2753;49.196;8.286;2024-02-26T09:22:04;5.73;;;3.70;;
5460;SDS011;2753;49.196;8.286;2024-02-26T09:24:30;8.70;;;5.27;;
5460;SDS011;2753;49.196;8.286;2024-02-26T09:26:56;2.33;;;2.13;;
5460;SDS011;2753;49.196;8.286;2024-02-26T09:29:23;3.70;;;2.93;;
5460;SDS011;2753;49.196;8.286;2024-02-26T09:31:51;4.33;;;3.60;;
5460;SDS011;2753;49.196;8.286;2024-02-26T09:34:18;5.83;;;2.30;;
5460;SDS011;2753;49.196;8.286;2024-02-26T09:36:47;7.83;;;5.43;;
5460;SDS011;2753;49.196;8.286;2024-02-26T09:39:16;4.10;;;3.00;;
5460;SDS011;2753;49.196;8.286;2024-02-26T09:41:47;6.77;;;2.03;;
5460;SDS011;2753;49.196;8.286;2024-02-26T09:44:18;6.10;;;4.33;;
5460;SDS011;2753;49.196;8.286;2024-02-26T09:46:51;4.17;;;3.57;;
5460;SDS011;2753;49.196;8.286;2024-02-26T09:49:20;11.77;;;7.63;;
5460;SDS011;2753;49.196;8.286;2024-02-26T09:51:54;11.33;;;7.43;;
5460;SDS011;2753;49.196;8.286;2024-02-26T09:54:28;10.43;;;7.10;;
5460;SDS011;2753;49.196;8.286;2024-02-26T09:57:03;4.80;;;3.80;;
5460;SDS011;2753;49.196;8.286;2024-02-26T09:59:39;4.97;;;4.47;;
5460;SDS011;2753;49.196;8.286;2024-02-26T10:02:14;11.77;;;7.07;;
5460;SDS011;2753;49.196;8.286;2024-02-26T10:04:45;13.10;;;6.53;;
5460;SDS011;2753;49.196;8.286;2024-02-26T10:07:22;27.43;;;13.30;;
5460;SDS011;2753;49.196;8.286;2024-02-26T10:09:54;13.73;;;8.13;;
5460;SDS011;2753;49.196;8.286;2024-02-26T10:12:26;13.00;;;7.00;;
5460;SDS011;2753;49.196;8.286;2024-02-26T10:15:07;22.93;;;11.40;;
5460;SDS011;2753;49.196;8.286;2024-02-26T10:18:04;22.27;;;9.80;;
5460;SDS011;2753;49.196;8.286;2024-02-26T10:21:37;12.63;;;6.53;;
5460;SDS011;2753;49.196;8.286;2024-02-26T10:24:13;14.50;;;5.77;;
5460;SDS011;2753;49.196;8.286;2024-02-26T10:26:45;21.43;;;8.77;;
5460;SDS011;2753;49.196;8.286;2024-02-26T10:29:14;34.20;;;13.40;;
5460;SDS011;2753;49.196;8.286;2024-02-26T10:31:43;18.60;;;8.60;;
5460;SDS011;2753;49.196;8.286;2024-02-26T10:34:19;26.63;;;9.53;;
5460;SDS011;2753;49.196;8.286;2024-02-26T10:36:49;11.97;;;6.43;;
5460;SDS011;2753;49.196;8.286;2024-02-26T10:39:15;18.77;;;9.60;;
5460;SDS011;2753;49.196;8.286;2024-02-26T10:41:44;3.27;;;3.07;;
5460;SDS011;2753;49.196;8.286;2024-02-26T10:44:12;7.47;;;4.27;;
5460;SDS011;2753;49.196;8.286;2024-02-26T10:46:42;15.13;;;8.00;;
5460;SDS011;2753;49.196;8.286;2024-02-26T10:49:15;6.40;;;4.40;;
5460;SDS011;2753;49.196;8.286;2024-02-26T10:51:48;6.40;;;4.00;;
5460;SDS011;2753;49.196;8.286;2024-02-26T10:54:27;9.83;;;6.07;;
5460;SDS011;2753;49.196;8.286;2024-02-26T10:57:13;12.30;;;7.70;;
5460;SDS011;2753;49.196;8.286;2024-02-26T10:59:50;19.87;;;11.83;;
5460;SDS011;2753;49.196;8.286;2024-02-26T11:02:18;35.80;;;19.20;;
5460;SDS011;2753;49.196;8.286;2024-02-26T11:04:48;2.03;;;1.93;;
5460;SDS011;2753;49.196;8.286;2024-02-26T11:07:15;5.83;;;2.10;;
5460;SDS011;2753;49.196;8.286;2024-02-26T11:09:41;1.87;;;1.77;;
5460;SDS011;2753;49.196;8.286;2024-02-26T11:12:11;2.27;;;2.17;;
5460;SDS011;2753;49.196;8.286;2024-02-26T11:14:39;2.40;;;1.70;;
5460;SDS011;2753;49.196;8.286;2024-02-26T11:17:06;3.60;;;1.97;;
5460;SDS011;2753;49.196;8.286;2024-02-26T11:19:34;2.30;;;1.40;;
5460;SDS011;2753;49.196;8.286;2024-02-26T11:22:01;1.53;;;1.43;;
5460;SDS011;2753;49.196;8.286;2024-02-26T11:24:27;1.93;;;1.83;;
5460;SDS011;2753;49.196;8.286;2024-02-26T11:26:54;1.97;;;1.87;;
5460;SDS011;2753;49.196;8.286;2024-02-26T11:29:29;1.83;;;1.57;;
5460;SDS011;2753;49.196;8.286;2024-02-26T11:32:00;1.23;;;1.23;;
5460;SDS011;2753;49.196;8.286;2024-02-26T11:34:27;7.50;;;1.37;;
5460;SDS011;2753;49.196;8.286;2024-02-26T11:36:53;1.47;;;1.40;;
5460;SDS011;2753;49.196;8.286;2024-02-26T11:39:19;1.07;;;1.07;;
5460;SDS011;2753;49.196;8.286;2024-02-26T11:41:45;1.60;;;1.50;;
5460;SDS011;2753;49.196;8.286;2024-02-26T11:44:12;2.73;;;2.53;;
5460;SDS011;2753;49.196;8.286;2024-02-26T11:46:42;4.50;;;1.70;;
5460;SDS011;2753;49.196;8.286;2024-02-26T11:52:07;12.47;;;6.97;;
5460;SDS011;2753;49.196;8.286;2024-02-26T11:54:49;6.60;;;1.50;;
5460;SDS011;2753;49.196;8.286;2024-02-26T12:05:34;2.47;;;1.90;;
5460;SDS011;2753;49.196;8.286;2024-02-26T12:08:22;2.50;;;2.03;;
5460;SDS011;2753;49.196;8.286;2024-02-26T12:10:50;26.47;;;13.07;;
5460;SDS011;2753;49.196;8.286;2024-02-26T12:13:21;21.43;;;9.90;;
5460;SDS011;2753;49.196;8.286;2024-02-26T12:15:57;28.03;;;13.00;;
5460;SDS011;2753;49.196;8.286;2024-02-26T12:18:25;28.23;;;13.57;;
5460;SDS011;2753;49.196;8.286;2024-02-26T12:21:00;10.93;;;6.17;;
5460;SDS011;2753;49.196;8.286;2024-02-26T12:23:38;4.60;;;2.63;;
5460;SDS011;2753;49.196;8.286;2024-02-26T12:26:10;1.83;;;1.73;;
5460;SDS011;2753;49.196;8.286;2024-02-26T12:28:39;2.87;;;2.67;;
5460;SDS011;2753;49.196;8.286;2024-02-26T12:31:07;12.03;;;4.77;;
5460;SDS011;2753;49.196;8.286;2024-02-26T12:33:35;6.23;;;4.20;;
5460;SDS011;2753;49.196;8.286;2024-02-26T12:36:03;5.33;;;2.67;;
5460;SDS011;2753;49.196;8.286;2024-02-26T12:38:35;4.23;;;2.23;;
5460;SDS011;2753;49.196;8.286;2024-02-26T12:41:05;5.70;;;3.37;;
5460;SDS011;2753;49.196;8.286;2024-02-26T12:43:35;8.50;;;2.00;;
5460;SDS011;2753;49.196;8.286;2024-02-26T12:46:08;1.87;;;1.70;;
5460;SDS011;2753;49.196;8.286;2024-02-26T12:48:58;2.07;;;1.87;;
5460;SDS011;2753;49.196;8.286;2024-02-26T12:51:27;1.70;;;1.23;;
5460;SDS011;2753;49.196;8.286;2024-02-26T12:54:14;1.20;;;1.10;;
5460;SDS011;2753;49.196;8.286;2024-02-26T12:56:43;0.77;;;0.77;;
5460;SDS011;2753;49.196;8.286;2024-02-26T12:59:12;1.50;;;1.40;;
5460;SDS011;2753;49.196;8.286;2024-02-26T13:01:46;3.37;;;1.70;;
5460;SDS011;2753;49.196;8.286;2024-02-26T13:04:14;3.93;;;3.40;;
5460;SDS011;2753;49.196;8.286;2024-02-26T13:06:45;7.67;;;4.83;;
5460;SDS011;2753;49.196;8.286;2024-02-26T13:09:36;2.57;;;2.20;;
5460;SDS011;2753;49.196;8.286;2024-02-26T13:12:07;0.80;;;0.70;;
5460;SDS011;2753;49.196;8.286;2024-02-26T13:14:40;6.40;;;3.17;;
5460;SDS011;2753;49.196;8.286;2024-02-26T13:17:20;1.67;;;1.00;;
5460;SDS011;2753;49.196;8.286;2024-02-26T13:19:59;2.20;;;0.90;;
5460;SDS011;2753;49.196;8.286;2024-02-26T13:22:30;7.80;;;2.70;;
5460;SDS011;2753;49.196;8.286;2024-02-26T13:25:20;0.90;;;0.90;;
5460;SDS011;2753;49.196;8.286;2024-02-26T13:27:49;4.67;;;1.53;;
5460;SDS011;2753;49.196;8.286;2024-02-26T13:30:16;1.70;;;1.60;;
5460;SDS011;2753;49.196;8.286;2024-02-26T13:32:44;7.53;;;3.47;;
5460;SDS011;2753;49.196;8.286;2024-02-26T13:35:12;1.47;;;1.30;;
5460;SDS011;2753;49.196;8.286;2024-02-26T13:37:39;1.30;;;1.20;;
5460;SDS011;2753;49.196;8.286;2024-02-26T13:40:07;19.97;;;1.67;;
5460;SDS011;2753;49.196;8.286;2024-02-26T13:42:37;1.07;;;1.07;;
5460;SDS011;2753;49.196;8.286;2024-02-26T13:45:07;1.90;;;1.37;;
5460;SDS011;2753;49.196;8.286;2024-02-26T13:47:37;1.57;;;1.00;;
5460;SDS011;2753;49.196;8.286;2024-02-26T13:50:05;1.23;;;1.07;;
5460;SDS011;2753;49.196;8.286;2024-02-26T13:52:41;1.83;;;1.73;;
5460;SDS011;2753;49.196;8.286;2024-02-26T13:55:08;7.40;;;4.03;;
5460;SDS011;2753;49.196;8.286;2024-02-26T13:57:34;0.77;;;0.77;;
5460;SDS011;2753;49.196;8.286;2024-02-26T13:59:59;1.80;;;1.47;;
5460;SDS011;2753;49.196;8.286;2024-02-26T14:02:25;4.27;;;2.70;;
5460;SDS011;2753;49.196;8.286;2024-02-26T14:04:51;1.17;;;1.17;;
5460;SDS011;2753;49.196;8.286;2024-02-26T14:07:17;1.63;;;0.90;;
5460;SDS011;2753;49.196;8.286;2024-02-26T14:09:43;1.27;;;1.17;;
5460;SDS011;2753;49.196;8.286;2024-02-26T14:12:10;4.20;;;3.90;;
5460;SDS011;2753;49.196;8.286;2024-02-26T14:14:36;1.20;;;1.20;;
5460;SDS011;2753;49.196;8.286;2024-02-26T14:17:04;4.97;;;2.97;;
5460;SDS011;2753;49.196;8.286;2024-02-26T14:19:30;1.37;;;1.27;;
5460;SDS011;2753;49.196;8.286;2024-02-26T14:21:56;1.07;;;0.90;;
5460;SDS011;2753;49.196;8.286;2024-02-26T14:24:22;1.30;;;1.20;;
5460;SDS011;2753;49.196;8.286;2024-02-26T14:26:47;2.03;;;1.10;;
5460;SDS011;2753;49.196;8.286;2024-02-26T14:29:13;2.70;;;2.10;;
5460;SDS011;2753;49.196;8.286;2024-02-26T14:31:39;1.10;;;1.00;;
5460;SDS011;2753;49.196;8.286;2024-02-26T14:34:05;2.50;;;1.17;;
5460;SDS011;2753;49.196;8.286;2024-02-26T14:36:31;0.90;;;0.90;;
5460;SDS011;2753;49.196;8.286;2024-02-26T14:38:59;1.87;;;0.83;;
5460;SDS011;2753;49.196;8.286;2024-02-26T14:41:25;3.47;;;0.90;;
5460;SDS011;2753;49.196;8.286;2024-02-26T14:43:50;1.43;;;1.23;;
5460;SDS011;2753;49.196;8.286;2024-02-26T14:46:16;3.63;;;1.90;;
5460;SDS011;2753;49.196;8.286;2024-02-26T14:48:42;2.93;;;1.80;;
5460;SDS011;2753;49.196;8.286;2024-02-26T14:51:08;8.50;;;3.60;;
5460;SDS011;2753;49.196;8.286;2024-02-26T14:53:33;7.77;;;2.70;;
5460;SDS011;2753;49.196;8.286;2024-02-26T14:56:00;2.20;;;1.70;;
5460;SDS011;2753;49.196;8.286;2024-02-26T14:58:25;3.03;;;2.20;;
5460;SDS011;2753;49.196;8.286;2024-02-26T15:00:51;2.40;;;2.20;;
5460;SDS011;2753;49.196;8.286;2024-02-26T15:03:17;2.20;;;1.67;;
5460;SDS011;2753;49.196;8.286;2024-02-26T15:05:42;1.43;;;1.33;;
5460;SDS011;2753;49.196;8.286;2024-02-26T15:08:08;6.10;;;1.63;;
5460;SDS011;2753;49.196;8.286;2024-02-26T15:10:35;0.60;;;0.60;;
5460;SDS011;2753;49.196;8.286;2024-02-26T15:13:01;2.13;;;1.77;;
5460;SDS011;2753;49.196;8.286;2024-02-26T15:15:26;3.33;;;1.17;;
5460;SDS011;2753;49.196;8.286;2024-02-26T15:17:52;1.20;;;1.10;;
5460;SDS011;2753;49.196;8.286;2024-02-26T15:20:18;5.93;;;0.70;;
5460;SDS011;2753;49.196;8.286;2024-02-26T15:22:44;1.33;;;1.23;;
5460;SDS011;2753;49.196;8.286;2024-02-26T15:25:10;1.10;;;1.10;;
5460;SDS011;2753;49.196;8.286;2024-02-26T15:27:35;1.13;;;0.80;;
5460;SDS011;2753;49.196;8.286;2024-02-26T15:30:01;1.00;;;1.00;;
5460;SDS011;2753;49.196;8.286;2024-02-26T15:32:27;0.80;;;0.63;;